createdAt,value
2018-03-15T00:00:54.528Z,10.73
2018-03-15T00:01:58.798Z,12.07
2018-03-15T00:03:03.196Z,11.30
2018-03-15T00:04:07.637Z,11.52
2018-03-15T00:05:12.870Z,11.75
2018-03-15T00:06:18.084Z,10.90
2018-03-15T00:07:22.552Z,10.27
2018-03-15T00:08:27.040Z,11.07
2018-03-15T00:09:31.490Z,11.77
2018-03-15T00:10:35.947Z,11.10
2018-03-15T00:11:41.162Z,12.13
2018-03-15T00:12:46.390Z,10.90
2018-03-15T00:13:50.869Z,10.32
2018-03-15T00:14:55.323Z,11.35
2018-03-15T00:16:00.558Z,12.32
2018-03-15T00:17:05.783Z,11.23
2018-03-15T00:18:11.018Z,10.95
2018-03-15T00:19:15.517Z,11.45
2018-03-15T00:20:21.128Z,10.70
2018-03-15T00:21:25.576Z,11.80
2018-03-15T00:22:33.051Z,11.02
2018-03-15T00:23:38.337Z,10.48
2018-03-15T00:24:42.830Z,10.73
2018-03-15T00:25:47.290Z,11.45
2018-03-15T00:26:51.745Z,10.45
2018-03-15T00:27:56.302Z,10.98
2018-03-15T00:29:00.762Z,11.18
2018-03-15T00:30:05.322Z,10.60
2018-03-15T00:31:09.437Z,10.93
2018-03-15T00:32:14.651Z,11.05
2018-03-15T00:33:19.134Z,8.98
2018-03-15T00:34:23.602Z,11.80
2018-03-15T00:35:28.850Z,10.88
2018-03-15T00:36:33.301Z,11.60
2018-03-15T00:37:37.764Z,12.15
2018-03-15T00:38:42.982Z,11.00
2018-03-15T00:39:48.251Z,11.77
2018-03-15T00:40:53.659Z,10.90
2018-03-15T00:41:58.878Z,11.27
2018-03-15T00:43:04.088Z,10.98
2018-03-15T00:44:08.548Z,10.40
2018-03-15T00:45:13.003Z,12.25
2018-03-15T00:46:17.499Z,11.95
2018-03-15T00:47:21.954Z,12.23
2018-03-15T00:48:27.183Z,11.50
2018-03-15T00:49:32.418Z,12.55
2018-03-15T00:50:37.638Z,11.70
2018-03-15T00:51:42.905Z,12.60
2018-03-15T00:52:47.374Z,11.40
2018-03-15T00:53:52.603Z,11.55
2018-03-15T00:54:57.864Z,11.30
2018-03-15T00:56:02.310Z,11.57
2018-03-15T00:57:06.792Z,12.10
2018-03-15T00:58:11.249Z,10.40
2018-03-15T00:59:15.704Z,11.57
2018-03-15T01:00:19.830Z,12.32
2018-03-15T01:01:24.306Z,10.85
2018-03-15T01:02:29.210Z,12.23
2018-03-15T01:03:33.668Z,11.65
2018-03-15T01:04:38.123Z,12.57
2018-03-15T01:05:42.578Z,11.73
2018-03-15T01:06:47.819Z,12.00
2018-03-15T01:07:52.292Z,11.05
2018-03-15T01:08:57.506Z,10.70
2018-03-15T01:10:01.974Z,11.18
2018-03-15T01:11:06.426Z,10.98
2018-03-15T01:12:10.885Z,12.70
2018-03-15T01:13:15.357Z,12.20
2018-03-15T01:15:36.646Z,11.73
2018-03-15T01:16:41.111Z,11.88
2018-03-15T01:17:45.558Z,11.05
2018-03-15T01:18:50.038Z,12.45
2018-03-15T01:19:54.494Z,11.32
2018-03-15T01:20:58.949Z,12.37
2018-03-15T01:22:03.401Z,11.05
2018-03-15T01:23:07.858Z,11.18
2018-03-15T01:24:13.108Z,10.63
2018-03-15T01:25:17.563Z,12.07
2018-03-15T01:26:22.024Z,11.23
2018-03-15T01:27:26.479Z,12.45
2018-03-15T01:28:30.926Z,12.37
2018-03-15T01:29:36.171Z,11.65
2018-03-15T01:30:41.387Z,12.93
2018-03-15T01:31:46.615Z,11.30
2018-03-15T01:32:51.830Z,12.93
2018-03-15T01:33:57.059Z,13.10
2018-03-15T01:35:01.551Z,11.55
2018-03-15T01:36:05.995Z,11.65
2018-03-15T01:37:11.215Z,12.13
2018-03-15T01:38:15.807Z,11.80
2018-03-15T01:39:20.257Z,11.80
2018-03-15T01:40:25.493Z,12.50
2018-03-15T01:41:29.949Z,10.77
2018-03-15T01:42:34.450Z,11.77
2018-03-15T01:43:38.903Z,12.05
2018-03-15T01:44:43.816Z,12.73
2018-03-15T01:45:48.285Z,12.70
2018-03-15T01:46:52.744Z,13.02
2018-03-15T01:47:58.703Z,14.27
2018-03-15T01:49:03.931Z,12.55
2018-03-15T01:50:08.383Z,14.02
2018-03-15T01:51:12.859Z,14.30
2018-03-15T01:52:18.085Z,13.25
2018-03-15T01:53:22.548Z,13.20
2018-03-15T01:54:27.019Z,14.20
2018-03-15T01:55:32.242Z,12.90
2018-03-15T01:56:37.490Z,13.57
2018-03-15T01:57:41.954Z,12.45
2018-03-15T01:58:47.935Z,13.38
2018-03-15T01:59:52.386Z,13.90
2018-03-15T02:00:56.858Z,13.88
2018-03-15T02:02:01.357Z,12.98
2018-03-15T02:03:06.570Z,13.20
2018-03-15T02:04:11.079Z,12.77
2018-03-15T02:05:15.542Z,13.80
2018-03-15T02:06:19.999Z,12.95
2018-03-15T02:07:24.536Z,12.85
2018-03-15T02:08:29.754Z,13.90
2018-03-15T02:09:34.970Z,13.45
2018-03-15T02:10:39.483Z,14.65
2018-03-15T02:11:43.943Z,12.68
2018-03-15T02:12:48.423Z,13.15
2018-03-15T02:13:53.650Z,11.70
2018-03-15T02:14:58.871Z,13.40
2018-03-15T02:16:03.358Z,13.38
2018-03-15T02:17:07.810Z,11.52
2018-03-15T02:18:13.795Z,13.60
2018-03-15T02:19:18.250Z,14.65
2018-03-15T02:20:22.698Z,14.30
2018-03-15T02:21:27.159Z,12.93
2018-03-15T02:22:31.622Z,12.52
2018-03-15T02:23:36.099Z,12.80
2018-03-15T02:24:40.553Z,13.15
2018-03-15T02:25:45.001Z,14.85
2018-03-15T02:26:49.459Z,14.30
2018-03-15T02:27:53.934Z,13.68
2018-03-15T02:28:58.534Z,12.50
2018-03-15T02:30:02.985Z,11.95
2018-03-15T02:31:08.202Z,13.82
2018-03-15T02:32:13.426Z,13.18
2018-03-15T02:33:17.897Z,13.13
2018-03-15T02:34:22.346Z,14.55
2018-03-15T02:35:26.805Z,13.60
2018-03-15T02:36:31.263Z,13.80
2018-03-15T02:37:36.480Z,13.90
2018-03-15T02:38:40.955Z,14.98
2018-03-15T02:39:45.067Z,15.00
2018-03-15T02:40:49.527Z,12.15
2018-03-15T02:41:54.833Z,14.35
2018-03-15T02:42:59.280Z,13.25
2018-03-15T02:44:04.515Z,13.48
2018-03-15T02:45:08.962Z,14.55
2018-03-15T02:46:13.429Z,13.15
2018-03-15T02:47:18.723Z,14.90
2018-03-15T02:48:23.175Z,14.45
2018-03-15T02:49:28.420Z,13.43
2018-03-15T02:50:32.871Z,13.57
2018-03-15T02:51:37.326Z,14.52
2018-03-15T02:52:41.782Z,14.45
2018-03-15T02:53:46.252Z,13.18
2018-03-15T02:54:51.490Z,13.80
2018-03-15T02:55:55.959Z,14.18
2018-03-15T02:57:00.409Z,13.02
2018-03-15T02:58:04.530Z,13.90
2018-03-15T02:59:08.985Z,13.90
2018-03-15T03:00:13.455Z,13.23
2018-03-15T03:01:17.914Z,13.20
2018-03-15T03:02:22.360Z,13.93
2018-03-15T03:03:26.810Z,13.75
2018-03-15T03:04:31.270Z,12.30
2018-03-15T03:05:36.565Z,14.05
2018-03-15T03:06:41.032Z,15.07
2018-03-15T03:07:45.487Z,13.38
2018-03-15T03:08:49.963Z,14.30
2018-03-15T03:09:54.402Z,16.35
2018-03-15T03:10:59.019Z,14.27
2018-03-15T03:12:03.487Z,13.45
2018-03-15T03:13:07.927Z,14.27
2018-03-15T03:14:12.385Z,15.15
2018-03-15T03:15:17.605Z,15.27
2018-03-15T03:16:22.862Z,13.27
2018-03-15T03:17:27.324Z,15.45
2018-03-15T03:18:31.796Z,13.55
2018-03-15T03:19:36.251Z,13.62
2018-03-15T03:20:40.697Z,15.43
2018-03-15T03:21:45.925Z,13.70
2018-03-15T03:22:51.144Z,14.40
2018-03-15T03:23:56.363Z,13.07
2018-03-15T03:25:00.823Z,14.63
2018-03-15T03:26:05.262Z,16.67
2018-03-15T03:27:09.725Z,16.45
2018-03-15T03:28:14.246Z,13.52
2018-03-15T03:29:18.863Z,14.95
2018-03-15T03:30:23.321Z,16.35
2018-03-15T03:31:27.800Z,13.18
2018-03-15T03:32:32.285Z,13.95
2018-03-15T03:33:37.491Z,14.75
2018-03-15T03:34:42.722Z,13.50
2018-03-15T03:35:47.948Z,13.40
2018-03-15T03:36:52.382Z,15.32
2018-03-15T03:37:56.854Z,14.15
2018-03-15T03:39:01.312Z,13.75
2018-03-15T03:40:06.212Z,14.65
2018-03-15T03:41:11.474Z,14.18
2018-03-15T03:42:15.927Z,15.35
2018-03-15T03:43:20.751Z,14.52
2018-03-15T03:44:25.186Z,14.48
2018-03-15T03:45:30.399Z,13.98
2018-03-15T03:46:34.856Z,13.13
2018-03-15T03:47:39.309Z,14.50
2018-03-15T03:48:43.850Z,14.32
2018-03-15T03:49:48.337Z,12.75
2018-03-15T03:50:52.794Z,14.25
2018-03-15T03:51:57.255Z,13.35
2018-03-15T03:53:01.721Z,13.18
2018-03-15T03:54:06.196Z,14.25
2018-03-15T03:55:10.645Z,13.27
2018-03-15T03:56:15.105Z,12.43
2018-03-15T03:57:19.554Z,11.77
2018-03-15T03:58:24.010Z,14.40
2018-03-15T03:59:28.486Z,13.62
2018-03-15T04:00:32.946Z,14.15
2018-03-15T04:01:38.271Z,11.20
2018-03-15T04:02:43.527Z,11.82
2018-03-15T04:03:48.746Z,13.77
2018-03-15T04:04:53.221Z,13.40
2018-03-15T04:05:57.666Z,14.10
2018-03-15T04:07:02.902Z,11.20
2018-03-15T04:08:08.125Z,12.20
2018-03-15T04:09:13.347Z,12.90
2018-03-15T04:10:17.833Z,14.27
2018-03-15T04:11:22.290Z,13.35
2018-03-15T04:12:27.498Z,12.07
2018-03-15T04:13:31.959Z,14.50
2018-03-15T04:14:36.406Z,13.73
2018-03-15T04:15:40.890Z,13.62
2018-03-15T04:16:45.332Z,14.35
2018-03-15T04:17:49.786Z,13.82
2018-03-15T04:18:54.243Z,12.20
2018-03-15T04:19:58.712Z,12.50
2018-03-15T04:21:03.182Z,11.85
2018-03-15T04:22:09.134Z,14.32
2018-03-15T04:23:13.591Z,12.75
2018-03-15T04:24:17.842Z,14.38
2018-03-15T04:25:22.295Z,14.30
2018-03-15T04:26:26.826Z,12.95
2018-03-15T04:27:31.475Z,14.25
2018-03-15T04:28:35.590Z,12.88
2018-03-15T04:29:40.044Z,15.15
2018-03-15T04:30:44.502Z,13.85
2018-03-15T04:31:48.810Z,12.88
2018-03-15T04:32:54.776Z,13.50
2018-03-15T04:33:59.995Z,14.80
2018-03-15T04:35:04.444Z,11.48
2018-03-15T04:36:08.906Z,15.73
2018-03-15T04:37:13.395Z,15.20
2018-03-15T04:38:17.844Z,13.38
2018-03-15T04:39:22.290Z,15.32
2018-03-15T04:40:26.737Z,13.35
2018-03-15T04:41:31.207Z,13.95
2018-03-15T04:42:35.693Z,11.63
2018-03-15T04:43:40.914Z,13.73
2018-03-15T04:44:45.368Z,13.48
2018-03-15T04:45:49.923Z,12.50
2018-03-15T04:46:54.358Z,10.90
2018-03-15T04:47:59.606Z,13.45
2018-03-15T04:49:04.058Z,10.35
2018-03-15T04:50:08.526Z,14.07
2018-03-15T04:51:13.738Z,13.00
2018-03-15T04:52:18.197Z,12.35
2018-03-15T04:53:22.449Z,14.57
2018-03-15T04:54:26.902Z,13.70
2018-03-15T04:55:31.418Z,13.07
2018-03-15T04:56:35.865Z,13.02
2018-03-15T04:57:40.324Z,10.25
2018-03-15T04:58:45.562Z,14.00
2018-03-15T04:59:50.035Z,14.13
2018-03-15T05:00:54.494Z,13.55
2018-03-15T05:01:58.956Z,13.70
2018-03-15T05:03:03.402Z,14.27
2018-03-15T05:04:07.879Z,14.65
2018-03-15T05:05:12.051Z,12.80
2018-03-15T05:06:16.524Z,13.73
2018-03-15T05:07:20.966Z,13.55
2018-03-15T05:08:25.431Z,12.68
2018-03-15T05:09:30.684Z,13.30
2018-03-15T05:10:35.165Z,13.98
2018-03-15T05:11:40.624Z,8.75
2018-03-15T05:12:45.392Z,11.95
2018-03-15T05:13:50.136Z,13.32
2018-03-15T05:14:55.689Z,13.98
2018-03-15T05:16:00.951Z,14.55
2018-03-15T05:17:05.404Z,13.95
2018-03-15T05:18:09.874Z,14.13
2018-03-15T05:19:14.323Z,13.27
2018-03-15T05:20:18.870Z,14.55
2018-03-15T05:21:23.491Z,12.52
2018-03-15T05:22:27.951Z,13.75
2018-03-15T05:23:32.414Z,12.80
2018-03-15T05:24:36.876Z,13.85
2018-03-15T05:25:41.350Z,14.48
2018-03-15T05:26:45.807Z,13.95
2018-03-15T05:27:51.778Z,13.20
2018-03-15T05:28:56.986Z,13.23
2018-03-15T05:30:01.436Z,10.73
2018-03-15T05:31:05.406Z,12.00
2018-03-15T05:32:10.624Z,10.40
2018-03-15T05:33:15.078Z,13.77
2018-03-15T05:34:19.552Z,12.63
2018-03-15T05:35:24.023Z,13.60
2018-03-15T05:36:28.509Z,15.45
2018-03-15T05:37:33.183Z,13.23
2018-03-15T05:38:38.400Z,15.27
2018-03-15T05:39:42.855Z,13.93
2018-03-15T05:40:48.062Z,15.60
2018-03-15T05:41:52.530Z,12.37
2018-03-15T05:42:57.996Z,10.00
2018-03-15T05:44:04.182Z,13.52
2018-03-15T05:45:09.016Z,13.77
2018-03-15T05:46:13.555Z,13.55
2018-03-15T05:47:18.914Z,14.52
2018-03-15T05:48:23.515Z,13.40
2018-03-15T05:49:28.333Z,12.30
2018-03-15T05:50:33.052Z,9.40
2018-03-15T05:51:37.722Z,16.37
2018-03-15T05:52:42.899Z,13.65
2018-03-15T05:53:47.444Z,15.15
2018-03-15T05:54:52.668Z,16.25
2018-03-15T05:55:57.898Z,13.55
2018-03-15T05:57:03.105Z,14.65
2018-03-15T05:58:07.567Z,13.73
2018-03-15T05:59:12.026Z,14.55
2018-03-15T06:00:18.034Z,14.15
2018-03-15T06:01:22.478Z,13.57
2018-03-15T06:02:26.937Z,13.05
2018-03-15T06:03:31.411Z,15.88
2018-03-15T06:04:35.867Z,12.95
2018-03-15T06:05:40.382Z,14.40
2018-03-15T06:06:44.647Z,13.15
2018-03-15T06:07:49.866Z,14.32
2018-03-15T06:08:54.346Z,16.02
2018-03-15T06:09:58.969Z,14.40
2018-03-15T06:11:03.438Z,17.17
2018-03-15T06:12:08.649Z,15.38
2018-03-15T06:13:13.866Z,15.68
2018-03-15T06:14:18.357Z,14.70
2018-03-15T06:15:22.849Z,16.77
2018-03-15T06:16:27.314Z,13.62
2018-03-15T06:17:32.530Z,14.80
2018-03-15T06:18:36.976Z,16.23
2018-03-15T06:19:41.430Z,15.43
2018-03-15T06:20:45.884Z,16.45
2018-03-15T06:21:50.347Z,16.25
2018-03-15T06:22:54.810Z,13.15
2018-03-15T06:24:00.037Z,17.75
2018-03-15T06:25:05.327Z,15.85
2018-03-15T06:26:09.771Z,14.93
2018-03-15T06:27:15.003Z,17.83
2018-03-15T06:28:20.214Z,17.30
2018-03-15T06:29:24.657Z,15.23
2018-03-15T06:30:29.134Z,17.35
2018-03-15T06:31:33.587Z,16.45
2018-03-15T06:32:37.858Z,16.87
2018-03-15T06:33:42.307Z,17.05
2018-03-15T06:34:46.751Z,18.00
2018-03-15T06:35:51.234Z,17.55
2018-03-15T06:36:55.682Z,16.00
2018-03-15T06:38:00.140Z,17.70
2018-03-15T06:39:04.690Z,15.38
2018-03-15T06:40:09.159Z,13.95
2018-03-15T06:41:14.415Z,16.50
2018-03-15T06:42:18.875Z,17.70
2018-03-15T06:43:23.326Z,16.10
2018-03-15T06:44:27.765Z,17.12
2018-03-15T06:45:32.218Z,15.77
2018-03-15T06:46:36.690Z,17.37
2018-03-15T06:47:40.875Z,14.00
2018-03-15T06:48:45.320Z,15.85
2018-03-15T06:49:49.785Z,11.82
2018-03-15T06:50:54.258Z,12.85
2018-03-15T06:51:59.506Z,11.57
2018-03-15T06:53:03.970Z,12.20
2018-03-15T06:54:08.098Z,14.80
2018-03-15T06:55:12.543Z,14.77
2018-03-15T06:56:17.004Z,13.43
2018-03-15T06:57:21.478Z,14.40
2018-03-15T06:58:25.957Z,13.05
2018-03-15T06:59:31.165Z,12.30
2018-03-15T07:00:35.640Z,12.70
2018-03-15T07:01:40.098Z,13.43
2018-03-15T07:02:45.353Z,13.90
2018-03-15T07:03:50.382Z,14.65
2018-03-15T07:04:54.882Z,12.37
2018-03-15T07:05:59.334Z,10.25
2018-03-15T07:07:03.868Z,12.02
2018-03-15T07:08:08.334Z,14.27
2018-03-15T07:09:12.797Z,11.12
2018-03-15T07:10:17.252Z,11.45
2018-03-15T07:11:21.709Z,10.15
2018-03-15T07:12:26.167Z,10.65
2018-03-15T07:13:30.643Z,10.73
2018-03-15T07:14:35.113Z,11.57
2018-03-15T07:15:39.560Z,9.70
2018-03-15T07:16:44.009Z,12.98
2018-03-15T07:17:48.585Z,11.82
2018-03-15T07:18:53.035Z,9.95
2018-03-15T07:19:57.504Z,10.88
2018-03-15T07:21:01.950Z,12.45
2018-03-15T07:22:07.229Z,13.18
2018-03-15T07:23:11.683Z,11.32
2018-03-15T07:24:16.964Z,12.15
2018-03-15T07:25:21.443Z,10.52
2018-03-15T07:26:26.008Z,10.20
2018-03-15T07:27:30.454Z,12.55
2018-03-15T07:28:35.493Z,11.40
2018-03-15T07:29:39.979Z,12.85
2018-03-15T07:30:44.440Z,10.70
2018-03-15T07:31:48.942Z,10.13
2018-03-15T07:32:53.389Z,11.48
2018-03-15T07:33:57.903Z,11.75
2018-03-15T07:35:02.546Z,11.48
2018-03-15T07:36:07.818Z,12.45
2018-03-15T07:37:12.267Z,11.82
2018-03-15T07:38:18.220Z,9.65
2018-03-15T07:39:22.529Z,7.55
2018-03-15T07:40:27.172Z,11.57
2018-03-15T07:41:32.383Z,9.38
2018-03-15T07:42:36.827Z,8.65
2018-03-15T07:43:41.290Z,11.48
2018-03-15T07:44:45.753Z,11.55
2018-03-15T07:45:50.251Z,10.75
2018-03-15T07:46:54.743Z,11.52
2018-03-15T07:47:59.963Z,11.05
2018-03-15T07:49:04.418Z,12.37
2018-03-15T07:50:08.964Z,11.40
2018-03-15T07:51:13.438Z,12.27
2018-03-15T07:52:17.918Z,13.15
2018-03-15T07:53:22.366Z,10.13
2018-03-15T07:54:26.822Z,11.25
2018-03-15T07:55:32.066Z,11.57
2018-03-15T07:56:37.282Z,11.65
2018-03-15T07:57:41.777Z,10.90
2018-03-15T07:58:46.267Z,13.32
2018-03-15T07:59:50.714Z,9.65
2018-03-15T08:00:55.954Z,11.25
2018-03-15T08:02:01.349Z,11.07
2018-03-15T08:03:05.891Z,10.60
2018-03-15T08:04:10.342Z,11.30
2018-03-15T08:05:14.794Z,11.05
2018-03-15T08:06:19.271Z,10.88
2018-03-15T08:07:23.821Z,9.82
2018-03-15T08:08:28.254Z,7.37
2018-03-15T08:09:32.762Z,10.57
2018-03-15T08:10:37.226Z,11.80
2018-03-15T08:11:41.710Z,10.93
2018-03-15T08:12:46.166Z,11.05
2018-03-15T08:13:50.633Z,12.48
2018-03-15T08:14:55.839Z,7.22
2018-03-15T08:16:00.939Z,12.98
2018-03-15T08:17:05.403Z,14.00
2018-03-15T08:18:09.892Z,12.20
2018-03-15T08:19:15.122Z,9.90
2018-03-15T08:20:20.345Z,12.20
2018-03-15T08:21:24.813Z,11.63
2018-03-15T08:22:29.293Z,10.52
2018-03-15T08:23:34.502Z,15.23
2018-03-15T08:24:39.806Z,10.45
2018-03-15T08:25:44.258Z,13.23
2018-03-15T08:26:49.480Z,15.82
2018-03-15T08:27:54.718Z,11.88
2018-03-15T08:28:59.938Z,16.00
2018-03-15T08:30:04.527Z,14.82
2018-03-15T08:31:09.338Z,11.18
2018-03-15T08:32:13.784Z,13.05
2018-03-15T08:33:19.027Z,16.92
2018-03-15T08:34:23.474Z,14.87
2018-03-15T08:35:27.914Z,15.10
2018-03-15T08:36:32.614Z,14.65
2018-03-15T08:37:37.042Z,14.48
2018-03-15T08:38:41.521Z,13.77
2018-03-15T08:39:45.987Z,16.20
2018-03-15T08:40:51.211Z,17.08
2018-03-15T08:41:56.431Z,13.90
2018-03-15T08:43:01.673Z,13.30
2018-03-15T08:44:06.922Z,16.42
2018-03-15T08:45:11.370Z,15.52
2018-03-15T08:46:15.855Z,15.57
2018-03-15T08:47:21.250Z,16.87
2018-03-15T08:48:25.723Z,18.00
2018-03-15T08:49:30.012Z,16.98
2018-03-15T08:50:34.464Z,18.70
2018-03-15T08:51:38.963Z,19.20
2018-03-15T08:52:43.576Z,17.12
2018-03-15T08:53:48.042Z,14.98
2018-03-15T08:54:52.531Z,17.02
2018-03-15T08:55:57.798Z,18.90
2018-03-15T08:57:02.253Z,17.10
2018-03-15T08:58:06.706Z,18.75
2018-03-15T08:59:11.165Z,17.33
2018-03-15T09:00:15.381Z,17.80
2018-03-15T09:01:19.984Z,16.23
2018-03-15T09:02:24.446Z,15.30
2018-03-15T09:03:28.905Z,18.85
2018-03-15T09:04:33.368Z,20.10
2018-03-15T09:05:37.866Z,20.08
2018-03-15T09:06:43.080Z,19.50
2018-03-15T09:07:47.543Z,17.90
2018-03-15T09:08:52.018Z,17.85
2018-03-15T09:09:56.675Z,19.50
2018-03-15T09:11:01.177Z,19.48
2018-03-15T09:12:05.806Z,19.58
2018-03-15T09:13:10.074Z,21.15
2018-03-15T09:14:14.351Z,19.60
2018-03-15T09:15:18.818Z,19.05
2018-03-15T09:16:23.294Z,20.80
2018-03-15T09:17:28.516Z,16.40
2018-03-15T09:18:33.744Z,21.42
2018-03-15T09:19:38.191Z,20.98
2018-03-15T09:20:42.647Z,17.60
2018-03-15T09:21:47.173Z,14.82
2018-03-15T09:22:51.831Z,17.83
2018-03-15T09:23:56.107Z,19.90
2018-03-15T09:25:01.335Z,19.58
2018-03-15T09:26:06.218Z,15.70
2018-03-15T09:27:10.686Z,21.05
2018-03-15T09:28:15.145Z,19.05
2018-03-15T09:29:19.603Z,21.15
2018-03-15T09:30:24.833Z,19.20
2018-03-15T09:31:29.513Z,20.30
2018-03-15T09:32:34.199Z,22.40
2018-03-15T09:33:38.920Z,21.98
2018-03-15T09:34:43.399Z,22.62
2018-03-15T09:35:48.073Z,20.55
2018-03-15T09:36:52.752Z,20.10
2018-03-15T09:37:57.291Z,21.00
2018-03-15T09:39:01.970Z,18.42
2018-03-15T09:40:06.446Z,21.60
2018-03-15T09:41:10.922Z,20.30
2018-03-15T09:42:15.604Z,20.33
2018-03-15T09:43:20.302Z,19.75
2018-03-15T09:44:25.772Z,18.85
2018-03-15T09:45:30.457Z,21.25
2018-03-15T09:46:35.207Z,22.23
2018-03-15T09:47:39.882Z,20.62
2018-03-15T09:48:45.342Z,20.48
2018-03-15T09:49:50.072Z,19.95
2018-03-15T09:50:54.574Z,21.35
2018-03-15T09:51:59.041Z,21.05
2018-03-15T09:53:03.738Z,21.98
2018-03-15T09:54:08.243Z,21.17
2018-03-15T09:55:12.934Z,21.48
2018-03-15T09:56:17.626Z,16.00
2018-03-15T09:57:23.067Z,19.23
2018-03-15T09:58:27.576Z,19.55
2018-03-15T09:59:32.258Z,19.75
2018-03-15T10:00:36.757Z,16.80
2018-03-15T10:01:41.228Z,20.75
2018-03-15T10:02:45.891Z,17.33
2018-03-15T10:03:50.553Z,20.08
2018-03-15T10:04:55.083Z,19.25
2018-03-15T10:05:59.754Z,19.92
2018-03-15T10:07:05.194Z,19.98
2018-03-15T10:08:10.431Z,19.83
2018-03-15T10:09:14.945Z,19.27
2018-03-15T10:10:19.439Z,17.80
2018-03-15T10:11:24.139Z,19.85
2018-03-15T10:12:28.822Z,19.98
2018-03-15T10:13:33.484Z,20.25
2018-03-15T10:14:39.463Z,20.02
2018-03-15T10:15:44.333Z,20.88
2018-03-15T10:16:48.791Z,21.40
2018-03-15T10:17:53.563Z,19.30
2018-03-15T10:18:58.269Z,20.48
2018-03-15T10:20:02.748Z,21.10
2018-03-15T10:21:07.435Z,19.00
2018-03-15T10:22:12.135Z,20.65
2018-03-15T10:23:16.769Z,17.60
2018-03-15T10:24:22.197Z,20.02
2018-03-15T10:25:27.433Z,14.05
2018-03-15T10:26:32.891Z,18.35
2018-03-15T10:27:37.354Z,19.23
2018-03-15T10:28:41.814Z,19.00
2018-03-15T10:29:46.300Z,20.48
2018-03-15T10:30:51.528Z,16.95
2018-03-15T10:31:56.778Z,15.75
2018-03-15T10:33:06.838Z,17.30
2018-03-15T10:34:11.501Z,17.70
2018-03-15T10:35:21.826Z,15.77
2018-03-15T10:36:26.860Z,14.93
2018-03-15T10:37:31.647Z,15.40
2018-03-15T10:38:36.110Z,18.17
2018-03-15T10:39:41.686Z,13.82
2018-03-15T10:40:46.356Z,16.80
2018-03-15T10:41:51.026Z,16.52
2018-03-15T10:42:55.735Z,17.42
2018-03-15T10:44:00.194Z,18.00
2018-03-15T10:45:04.343Z,17.02
2018-03-15T10:46:08.999Z,18.58
2018-03-15T10:47:13.671Z,15.80
2018-03-15T10:48:18.368Z,16.95
2018-03-15T10:49:23.612Z,16.85
2018-03-15T10:50:28.831Z,17.42
2018-03-15T10:51:34.082Z,16.75
2018-03-15T10:52:38.546Z,17.83
2018-03-15T10:53:43.047Z,18.15
2018-03-15T10:54:47.525Z,15.60
2018-03-15T10:55:52.029Z,14.90
2018-03-15T10:56:56.706Z,17.62
2018-03-15T10:58:01.166Z,17.52
2018-03-15T10:59:05.870Z,19.30
2018-03-15T11:00:10.538Z,15.38
2018-03-15T11:01:20.787Z,19.77
2018-03-15T11:02:32.427Z,15.48
2018-03-15T11:03:42.503Z,17.15
2018-03-15T11:04:52.803Z,15.77
2018-03-15T11:06:12.966Z,15.23
2018-03-15T11:07:23.804Z,16.75
2018-03-15T11:08:28.280Z,16.87
2018-03-15T11:09:32.737Z,17.60
2018-03-15T11:10:37.213Z,17.90
2018-03-15T11:11:41.894Z,18.95
2018-03-15T11:12:46.604Z,14.55
2018-03-15T11:13:52.012Z,20.08
2018-03-15T11:14:57.254Z,17.58
2018-03-15T11:16:02.694Z,16.48
2018-03-15T11:17:08.150Z,16.98
2018-03-15T11:18:13.412Z,17.75
2018-03-15T11:19:17.693Z,17.00
2018-03-15T11:20:22.359Z,19.55
2018-03-15T11:21:27.060Z,17.62
2018-03-15T11:22:31.534Z,16.55
2018-03-15T11:23:36.218Z,17.67
2018-03-15T11:24:40.898Z,17.42
2018-03-15T11:25:45.396Z,17.98
2018-03-15T11:26:50.138Z,16.02
2018-03-15T11:27:55.401Z,17.55
2018-03-15T11:28:59.907Z,14.82
2018-03-15T11:30:05.200Z,14.73
2018-03-15T11:31:09.833Z,19.20
2018-03-15T11:32:14.346Z,19.15
2018-03-15T11:33:19.078Z,17.60
2018-03-15T11:34:24.530Z,18.65
2018-03-15T11:35:28.998Z,18.58
2018-03-15T11:36:33.727Z,16.45
2018-03-15T11:37:39.937Z,17.20
2018-03-15T11:38:44.398Z,19.60
2018-03-15T11:39:49.627Z,15.93
2018-03-15T11:40:55.147Z,17.00
2018-03-15T11:42:00.588Z,16.77
2018-03-15T11:43:05.274Z,18.85
2018-03-15T11:44:09.929Z,16.55
2018-03-15T11:45:14.604Z,15.90
2018-03-15T11:46:19.080Z,14.18
2018-03-15T11:47:23.750Z,15.45
2018-03-15T11:48:28.448Z,16.65
2018-03-15T11:49:33.127Z,15.35
2018-03-15T11:50:37.837Z,15.05
2018-03-15T11:51:42.459Z,11.30
2018-03-15T11:52:46.921Z,16.95
2018-03-15T11:53:51.615Z,11.00
2018-03-15T11:54:56.095Z,12.68
2018-03-15T11:56:00.559Z,14.52
2018-03-15T11:57:05.223Z,12.37
2018-03-15T11:58:09.996Z,11.27
2018-03-15T11:59:14.699Z,10.65
2018-03-15T12:00:19.171Z,12.35
2018-03-15T12:01:23.642Z,13.88
2018-03-15T12:02:28.324Z,14.18
2018-03-15T12:03:33.038Z,13.13
2018-03-15T12:04:37.795Z,11.55
2018-03-15T12:05:42.467Z,11.45
2018-03-15T12:06:47.134Z,14.10
2018-03-15T12:07:52.370Z,13.85
2018-03-15T12:08:57.684Z,10.38
2018-03-15T12:10:02.371Z,13.30
2018-03-15T12:11:07.052Z,14.60
2018-03-15T12:12:12.484Z,8.88
2018-03-15T12:13:17.986Z,13.90
2018-03-15T12:14:22.664Z,13.68
2018-03-15T12:15:27.179Z,12.43
2018-03-15T12:16:31.846Z,14.38
2018-03-15T12:17:37.074Z,14.45
2018-03-15T12:18:43.047Z,14.93
2018-03-15T12:19:47.493Z,11.90
2018-03-15T12:20:51.850Z,15.00
2018-03-15T12:21:57.084Z,13.15
2018-03-15T12:23:01.586Z,9.45
2018-03-15T12:24:06.810Z,15.90
2018-03-15T12:25:11.263Z,15.05
2018-03-15T12:26:15.760Z,13.57
2018-03-15T12:27:20.232Z,15.68
2018-03-15T12:28:24.683Z,15.98
2018-03-15T12:29:29.273Z,16.05
2018-03-15T12:30:33.723Z,16.30
2018-03-15T12:31:38.185Z,15.80
2018-03-15T12:32:42.649Z,15.07
2018-03-15T12:33:47.106Z,14.27
2018-03-15T12:34:51.571Z,14.65
2018-03-15T12:35:56.097Z,15.73
2018-03-15T12:37:00.575Z,13.60
2018-03-15T12:38:05.022Z,14.85
2018-03-15T12:39:09.746Z,15.05
2018-03-15T12:40:14.198Z,13.95
2018-03-15T12:41:19.435Z,14.10
2018-03-15T12:42:24.674Z,12.98
2018-03-15T12:43:29.934Z,15.98
2018-03-15T12:44:34.402Z,13.88
2018-03-15T12:45:39.641Z,14.65
2018-03-15T12:46:44.519Z,12.60
2018-03-15T12:47:48.986Z,13.90
2018-03-15T12:48:53.468Z,10.07
2018-03-15T12:49:58.691Z,14.05
2018-03-15T12:51:03.919Z,16.30
2018-03-15T12:52:09.154Z,15.60
2018-03-15T12:53:13.626Z,15.93
2018-03-15T12:54:18.111Z,14.70
2018-03-15T12:55:23.415Z,15.30
2018-03-15T12:56:27.862Z,14.75
2018-03-15T12:57:32.417Z,12.93
2018-03-15T12:58:37.066Z,15.90
2018-03-15T12:59:42.286Z,16.17
2018-03-15T13:00:47.531Z,10.85
2018-03-15T13:01:51.992Z,14.55
2018-03-15T13:02:56.450Z,13.40
2018-03-15T13:04:00.942Z,13.82
2018-03-15T13:05:06.163Z,11.40
2018-03-15T13:06:10.677Z,14.68
2018-03-15T13:07:15.140Z,14.73
2018-03-15T13:08:19.598Z,14.25
2018-03-15T13:09:24.102Z,14.23
2018-03-15T13:10:28.606Z,12.57
2018-03-15T13:11:33.070Z,12.48
2018-03-15T13:12:37.537Z,14.15
2018-03-15T13:13:42.801Z,10.93
2018-03-15T13:14:47.339Z,13.88
2018-03-15T13:15:52.089Z,11.98
2018-03-15T13:16:56.550Z,10.38
2018-03-15T13:18:01.010Z,13.35
2018-03-15T13:19:05.470Z,13.68
2018-03-15T13:20:09.952Z,13.27
2018-03-15T13:21:15.174Z,13.57
2018-03-15T13:22:19.634Z,14.20
2018-03-15T13:23:24.098Z,14.90
2018-03-15T13:24:28.592Z,14.80
2018-03-15T13:25:33.361Z,13.30
2018-03-15T13:26:38.566Z,15.40
2018-03-15T13:28:56.925Z,13.70
2018-03-15T13:30:01.443Z,13.93
2018-03-15T13:31:05.955Z,13.88
2018-03-15T13:32:10.444Z,14.20
2018-03-15T13:33:14.893Z,14.55
2018-03-15T13:34:19.421Z,13.55
2018-03-15T13:35:24.802Z,11.15
2018-03-15T13:36:30.056Z,13.50
2018-03-15T13:37:34.524Z,13.60
2018-03-15T13:38:39.747Z,14.25
2018-03-15T13:39:44.205Z,14.80
2018-03-15T13:40:48.668Z,14.82
2018-03-15T13:41:53.160Z,12.77
2018-03-15T13:42:57.694Z,11.88
2018-03-15T13:44:02.166Z,15.15
2018-03-15T13:45:06.643Z,13.75
2018-03-15T13:46:11.865Z,10.70
2018-03-15T13:47:17.180Z,14.77
2018-03-15T13:48:21.648Z,13.93
2018-03-15T13:49:26.182Z,13.35
2018-03-15T13:50:30.776Z,12.13
2018-03-15T13:51:35.324Z,14.43
2018-03-15T13:52:40.145Z,14.45
2018-03-15T13:53:44.608Z,15.65
2018-03-15T13:54:49.079Z,12.65
2018-03-15T13:55:53.576Z,15.10
2018-03-15T13:56:58.043Z,12.80
2018-03-15T13:58:02.531Z,11.35